sensor_id;sensor_type;location;lat;lon;timestamp;pressure;altitude;pressure_sealevel;temperature;humidity
32735;BME280;19112;51.076;3.706;2024-02-23T00:02:09;98372.78;;;5.17;88.87
32735;BME280;19112;51.076;3.706;2024-02-23T00:04:35;97693.25;;;0.76;88.01
32735;BME280;19112;51.076;3.706;2024-02-23T00:07:01;98327.97;;;4.75;89.02
32735;BME280;19112;51.076;3.706;2024-02-23T00:09:29;97935.06;;;2.41;87.91
32735;BME280;19112;51.076;3.706;2024-02-23T00:11:57;98029.34;;;3.02;88.85
32735;BME280;19112;51.076;3.706;2024-02-23T00:14:23;98222.00;;;3.99;89.34
32735;BME280;19112;51.076;3.706;2024-02-23T00:16:55;97816.00;;;1.89;88.90
32735;BME280;19112;51.076;3.706;2024-02-23T00:19:24;98676.78;;;6.60;90.13
32735;BME280;19112;51.076;3.706;2024-02-23T00:21:51;98993.91;;;8.24;90.94
32735;BME280;19112;51.076;3.706;2024-02-23T00:24:18;98350.41;;;4.71;90.51
32735;BME280;19112;51.076;3.706;2024-02-23T00:26:49;98935.63;;;8.34;91.08
32735;BME280;19112;51.076;3.706;2024-02-23T00:29:17;97821.38;;;2.01;89.33
32735;BME280;19112;51.076;3.706;2024-02-23T00:31:44;98591.75;;;6.66;90.36
32735;BME280;19112;51.076;3.706;2024-02-23T00:34:13;98034.50;;;2.99;89.09
32735;BME280;19112;51.076;3.706;2024-02-23T00:36:42;97925.88;;;2.56;89.82
32735;BME280;19112;51.076;3.706;2024-02-23T00:39:10;98522.41;;;6.11;90.31
32735;BME280;19112;51.076;3.706;2024-02-23T00:41:39;98548.91;;;5.84;90.00
32735;BME280;19112;51.076;3.706;2024-02-23T00:44:07;98501.69;;;5.58;90.24
32735;BME280;19112;51.076;3.706;2024-02-23T00:46:32;97937.09;;;2.12;89.29
32735;BME280;19112;51.076;3.706;2024-02-23T00:49:00;98700.19;;;7.20;89.46
32735;BME280;19112;51.076;3.706;2024-02-23T00:51:29;98466.47;;;5.83;89.46
32735;BME280;19112;51.076;3.706;2024-02-23T00:53:57;98092.06;;;3.31;88.84
32735;BME280;19112;51.076;3.706;2024-02-23T00:56:24;98150.16;;;3.42;88.45
32735;BME280;19112;51.076;3.706;2024-02-23T00:58:50;98532.34;;;5.77;89.18
32735;BME280;19112;51.076;3.706;2024-02-23T01:01:16;98413.47;;;4.59;88.89
32735;BME280;19112;51.076;3.706;2024-02-23T01:03:42;98649.47;;;6.28;89.67
32735;BME280;19112;51.076;3.706;2024-02-23T01:06:08;98212.16;;;3.78;88.83
32735;BME280;19112;51.076;3.706;2024-02-23T01:08:34;98645.94;;;6.28;88.90
32735;BME280;19112;51.076;3.706;2024-02-23T01:11:02;98410.56;;;4.94;89.11
32735;BME280;19112;51.076;3.706;2024-02-23T01:13:29;98433.91;;;4.91;89.06
32735;BME280;19112;51.076;3.706;2024-02-23T01:15:55;97992.13;;;2.03;88.49
32735;BME280;19112;51.076;3.706;2024-02-23T01:18:21;98368.88;;;4.35;89.60
32735;BME280;19112;51.076;3.706;2024-02-23T01:20:47;98703.94;;;6.74;90.50
32735;BME280;19112;51.076;3.706;2024-02-23T01:23:15;98430.47;;;4.92;90.71
32735;BME280;19112;51.076;3.706;2024-02-23T01:25:42;98542.84;;;5.83;90.28
32735;BME280;19112;51.076;3.706;2024-02-23T01:28:09;98203.50;;;3.78;90.28
32735;BME280;19112;51.076;3.706;2024-02-23T01:30:37;97778.94;;;1.43;90.37
32735;BME280;19112;51.076;3.706;2024-02-23T01:33:03;98230.63;;;3.97;91.58
32735;BME280;19112;51.076;3.706;2024-02-23T01:35:30;98487.78;;;5.54;91.52
32735;BME280;19112;51.076;3.706;2024-02-23T01:37:57;98958.22;;;8.28;91.60
32735;BME280;19112;51.076;3.706;2024-02-23T01:40:24;98808.28;;;6.78;91.06
32735;BME280;19112;51.076;3.706;2024-02-23T01:43:04;98280.13;;;4.09;90.40
32735;BME280;19112;51.076;3.706;2024-02-23T01:45:33;98182.69;;;3.73;89.87
32735;BME280;19112;51.076;3.706;2024-02-23T01:48:01;98593.59;;;6.10;90.07
32735;BME280;19112;51.076;3.706;2024-02-23T01:50:27;98797.88;;;6.80;89.63
32735;BME280;19112;51.076;3.706;2024-02-23T01:53:00;98162.19;;;3.38;89.08
32735;BME280;19112;51.076;3.706;2024-02-23T01:55:28;98493.69;;;5.44;89.09
32735;BME280;19112;51.076;3.706;2024-02-23T01:57:54;98789.00;;;6.67;89.19
32735;BME280;19112;51.076;3.706;2024-02-23T02:00:20;98474.81;;;5.01;89.03
32735;BME280;19112;51.076;3.706;2024-02-23T02:02:48;98163.59;;;3.21;89.44
32735;BME280;19112;51.076;3.706;2024-02-23T02:05:17;98617.56;;;5.90;90.36
32735;BME280;19112;51.076;3.706;2024-02-23T02:07:45;98245.13;;;3.84;90.53
32735;BME280;19112;51.076;3.706;2024-02-23T02:10:15;98391.31;;;4.83;91.03
32735;BME280;19112;51.076;3.706;2024-02-23T02:12:42;98897.78;;;7.32;91.21
32735;BME280;19112;51.076;3.706;2024-02-23T02:15:10;98985.09;;;8.18;91.66
32735;BME280;19112;51.076;3.706;2024-02-23T02:17:35;98711.34;;;6.45;90.97
32735;BME280;19112;51.076;3.706;2024-02-23T02:20:03;98376.25;;;4.63;90.68
32735;BME280;19112;51.076;3.706;2024-02-23T02:22:36;97977.47;;;2.47;90.92
32735;BME280;19112;51.076;3.706;2024-02-23T02:25:06;98520.19;;;5.76;91.14
32735;BME280;19112;51.076;3.706;2024-02-23T02:27:33;97999.38;;;2.21;90.70
32735;BME280;19112;51.076;3.706;2024-02-23T02:30:02;98048.69;;;3.21;91.04
32735;BME280;19112;51.076;3.706;2024-02-23T02:32:35;98721.97;;;6.60;91.26
32735;BME280;19112;51.076;3.706;2024-02-23T02:35:01;97845.47;;;1.97;90.21
32735;BME280;19112;51.076;3.706;2024-02-23T02:37:28;98151.13;;;3.47;90.57
32735;BME280;19112;51.076;3.706;2024-02-23T02:39:54;98423.88;;;4.62;90.86
32735;BME280;19112;51.076;3.706;2024-02-23T02:42:20;98401.97;;;4.46;90.68
32735;BME280;19112;51.076;3.706;2024-02-23T02:44:46;98247.47;;;3.70;90.55
32735;BME280;19112;51.076;3.706;2024-02-23T02:47:13;98954.69;;;8.23;91.30
32735;BME280;19112;51.076;3.706;2024-02-23T02:49:42;99005.44;;;8.40;91.38
32735;BME280;19112;51.076;3.706;2024-02-23T02:52:08;98413.63;;;5.24;91.21
32735;BME280;19112;51.076;3.706;2024-02-23T02:54:34;98121.19;;;3.18;90.60
32735;BME280;19112;51.076;3.706;2024-02-23T02:57:01;98350.41;;;4.71;90.53
32735;BME280;19112;51.076;3.706;2024-02-23T02:59:34;98868.25;;;8.07;91.37
32735;BME280;19112;51.076;3.706;2024-02-23T03:01:59;98760.94;;;7.10;90.99
32735;BME280;19112;51.076;3.706;2024-02-23T03:04:27;98530.03;;;5.95;91.15
32735;BME280;19112;51.076;3.706;2024-02-23T03:06:56;98714.09;;;7.21;91.19
32735;BME280;19112;51.076;3.706;2024-02-23T03:09:23;98560.31;;;6.54;91.45
32735;BME280;19112;51.076;3.706;2024-02-23T03:11:52;98260.50;;;4.25;90.63
32735;BME280;19112;51.076;3.706;2024-02-23T03:14:19;98719.34;;;7.24;90.97
32735;BME280;19112;51.076;3.706;2024-02-23T03:16:49;98794.03;;;7.14;91.00
32735;BME280;19112;51.076;3.706;2024-02-23T03:19:15;97809.88;;;1.84;90.25
32735;BME280;19112;51.076;3.706;2024-02-23T03:21:42;98959.53;;;8.65;90.53
32735;BME280;19112;51.076;3.706;2024-02-23T03:24:07;98374.91;;;5.46;90.58
32735;BME280;19112;51.076;3.706;2024-02-23T03:26:33;97919.94;;;2.17;89.80
32735;BME280;19112;51.076;3.706;2024-02-23T03:28:59;98158.06;;;3.51;90.55
32735;BME280;19112;51.076;3.706;2024-02-23T03:31:25;98592.75;;;6.12;90.79
32735;BME280;19112;51.076;3.706;2024-02-23T03:33:51;98141.56;;;3.46;90.50
32735;BME280;19112;51.076;3.706;2024-02-23T03:36:26;98249.22;;;4.21;90.83
32735;BME280;19112;51.076;3.706;2024-02-23T03:38:53;98552.28;;;6.36;90.54
32735;BME280;19112;51.076;3.706;2024-02-23T03:41:19;97626.59;;;1.01;90.51
32735;BME280;19112;51.076;3.706;2024-02-23T03:43:44;98451.72;;;5.82;90.07
32735;BME280;19112;51.076;3.706;2024-02-23T03:46:10;98578.06;;;6.17;90.18
32735;BME280;19112;51.076;3.706;2024-02-23T03:48:37;98680.19;;;7.22;90.20
32735;BME280;19112;51.076;3.706;2024-02-23T03:51:08;98383.72;;;5.57;89.78
32735;BME280;19112;51.076;3.706;2024-02-23T03:53:37;98040.69;;;3.08;89.49
32735;BME280;19112;51.076;3.706;2024-02-23T03:56:04;97829.56;;;1.76;89.42
32735;BME280;19112;51.076;3.706;2024-02-23T03:58:30;98743.00;;;7.36;89.88
32735;BME280;19112;51.076;3.706;2024-02-23T04:00:56;98214.19;;;3.96;90.26
32735;BME280;19112;51.076;3.706;2024-02-23T04:03:24;99004.81;;;8.59;91.14
32735;BME280;19112;51.076;3.706;2024-02-23T04:05:51;98271.28;;;4.47;90.48
32735;BME280;19112;51.076;3.706;2024-02-23T04:08:18;98350.69;;;4.89;90.59
32735;BME280;19112;51.076;3.706;2024-02-23T04:10:43;98253.75;;;4.36;90.46
32735;BME280;19112;51.076;3.706;2024-02-23T04:13:09;97910.53;;;2.70;89.20
32735;BME280;19112;51.076;3.706;2024-02-23T04:15:38;98549.00;;;6.50;90.09
32735;BME280;19112;51.076;3.706;2024-02-23T04:18:05;98668.00;;;7.20;90.74
32735;BME280;19112;51.076;3.706;2024-02-23T04:20:34;98586.06;;;6.29;90.69
32735;BME280;19112;51.076;3.706;2024-02-23T04:23:03;98439.63;;;5.87;89.96
32735;BME280;19112;51.076;3.706;2024-02-23T04:25:32;97677.44;;;1.02;89.42
32735;BME280;19112;51.076;3.706;2024-02-23T04:27:58;98109.72;;;3.52;90.27
32735;BME280;19112;51.076;3.706;2024-02-23T04:30:24;98455.28;;;5.90;90.04
32735;BME280;19112;51.076;3.706;2024-02-23T04:32:51;98721.13;;;7.29;90.93
32735;BME280;19112;51.076;3.706;2024-02-23T04:35:17;98459.75;;;5.36;90.29
32735;BME280;19112;51.076;3.706;2024-02-23T04:37:45;98625.00;;;6.19;90.49
32735;BME280;19112;51.076;3.706;2024-02-23T04:40:11;98472.28;;;5.63;90.19
32735;BME280;19112;51.076;3.706;2024-02-23T04:42:38;99031.94;;;8.04;90.83
32735;BME280;19112;51.076;3.706;2024-02-23T04:45:05;97474.75;;;-0.15;89.34
32735;BME280;19112;51.076;3.706;2024-02-23T04:47:33;98667.56;;;6.83;90.21
32735;BME280;19112;51.076;3.706;2024-02-23T04:50:01;98428.78;;;4.95;89.15
32735;BME280;19112;51.076;3.706;2024-02-23T04:52:29;98352.59;;;4.99;89.37
32735;BME280;19112;51.076;3.706;2024-02-23T04:54:55;97917.06;;;1.57;89.23
32735;BME280;19112;51.076;3.706;2024-02-23T04:57:21;98402.34;;;5.22;89.64
32735;BME280;19112;51.076;3.706;2024-02-23T04:59:50;97582.75;;;0.13;88.54
32735;BME280;19112;51.076;3.706;2024-02-23T05:02:17;98918.53;;;7.86;90.13
32735;BME280;19112;51.076;3.706;2024-02-23T05:04:44;98209.75;;;3.89;89.43
32735;BME280;19112;51.076;3.706;2024-02-23T05:07:10;98176.78;;;3.35;89.62
32735;BME280;19112;51.076;3.706;2024-02-23T05:09:37;98599.03;;;6.23;90.07
32735;BME280;19112;51.076;3.706;2024-02-23T05:12:04;98382.66;;;4.84;90.13
32735;BME280;19112;51.076;3.706;2024-02-23T05:14:32;98605.88;;;6.18;90.64
32735;BME280;19112;51.076;3.706;2024-02-23T05:16:58;98937.47;;;7.70;91.06
32735;BME280;19112;51.076;3.706;2024-02-23T05:19:24;98434.72;;;4.87;90.23
32735;BME280;19112;51.076;3.706;2024-02-23T05:21:50;98709.78;;;6.57;91.09
32735;BME280;19112;51.076;3.706;2024-02-23T05:24:15;98531.97;;;5.52;90.75
32735;BME280;19112;51.076;3.706;2024-02-23T05:26:43;98659.72;;;6.19;90.72
32735;BME280;19112;51.076;3.706;2024-02-23T05:29:12;98031.75;;;2.91;90.53
32735;BME280;19112;51.076;3.706;2024-02-23T05:31:51;98196.09;;;3.51;90.71
32735;BME280;19112;51.076;3.706;2024-02-23T05:34:19;98205.06;;;3.68;90.30
32735;BME280;19112;51.076;3.706;2024-02-23T05:36:46;98378.47;;;4.90;90.94
32735;BME280;19112;51.076;3.706;2024-02-23T05:39:13;98860.19;;;7.84;90.79
32735;BME280;19112;51.076;3.706;2024-02-23T05:41:41;98318.22;;;4.63;89.93
32735;BME280;19112;51.076;3.706;2024-02-23T05:44:07;97985.22;;;2.47;89.73
32735;BME280;19112;51.076;3.706;2024-02-23T05:46:35;98633.34;;;6.60;90.65
32735;BME280;19112;51.076;3.706;2024-02-23T05:49:02;98613.13;;;5.82;90.52
32735;BME280;19112;51.076;3.706;2024-02-23T05:51:32;98433.94;;;5.50;90.19
32735;BME280;19112;51.076;3.706;2024-02-23T05:54:02;98699.94;;;6.99;90.87
32735;BME280;19112;51.076;3.706;2024-02-23T05:56:31;98452.91;;;5.43;90.73
32735;BME280;19112;51.076;3.706;2024-02-23T05:59:00;98425.41;;;5.60;91.33
32735;BME280;19112;51.076;3.706;2024-02-23T06:01:26;98820.19;;;7.92;91.43
32735;BME280;19112;51.076;3.706;2024-02-23T06:03:53;98296.31;;;5.02;90.88
32735;BME280;19112;51.076;3.706;2024-02-23T06:06:21;98080.72;;;3.79;90.27
32735;BME280;19112;51.076;3.706;2024-02-23T06:08:47;98318.06;;;5.11;90.31
32735;BME280;19112;51.076;3.706;2024-02-23T06:11:17;98316.47;;;5.19;90.23
32735;BME280;19112;51.076;3.706;2024-02-23T06:13:43;98208.09;;;4.52;90.60
32735;BME280;19112;51.076;3.706;2024-02-23T06:16:15;98627.56;;;6.82;90.96
32735;BME280;19112;51.076;3.706;2024-02-23T06:18:41;98193.28;;;4.43;90.14
32735;BME280;19112;51.076;3.706;2024-02-23T06:21:17;97997.19;;;3.42;90.59
32735;BME280;19112;51.076;3.706;2024-02-23T06:23:53;98337.06;;;5.06;89.93
32735;BME280;19112;51.076;3.706;2024-02-23T06:26:18;97971.22;;;2.86;90.13
32735;BME280;19112;51.076;3.706;2024-02-23T06:28:47;98857.97;;;8.24;90.58
32735;BME280;19112;51.076;3.706;2024-02-23T06:31:14;98462.88;;;5.73;90.36
32735;BME280;19112;51.076;3.706;2024-02-23T06:33:51;98417.53;;;5.54;90.62
32735;BME280;19112;51.076;3.706;2024-02-23T06:36:18;98097.97;;;3.75;90.49
32735;BME280;19112;51.076;3.706;2024-02-23T06:38:46;98042.31;;;3.53;90.31
32735;BME280;19112;51.076;3.706;2024-02-23T06:41:15;97719.88;;;1.65;90.31
32735;BME280;19112;51.076;3.706;2024-02-23T06:43:44;98132.44;;;4.26;90.72
32735;BME280;19112;51.076;3.706;2024-02-23T06:46:11;98112.47;;;3.62;90.06
32735;BME280;19112;51.076;3.706;2024-02-23T06:48:38;98679.28;;;7.19;91.04
32735;BME280;19112;51.076;3.706;2024-02-23T06:51:07;98704.34;;;7.86;90.68
32735;BME280;19112;51.076;3.706;2024-02-23T06:53:36;98183.41;;;4.19;90.17
32735;BME280;19112;51.076;3.706;2024-02-23T06:56:02;98511.13;;;6.09;90.74
32735;BME280;19112;51.076;3.706;2024-02-23T06:58:30;98574.31;;;6.62;90.86
32735;BME280;19112;51.076;3.706;2024-02-23T07:00:55;98848.69;;;8.49;91.51
32735;BME280;19112;51.076;3.706;2024-02-23T07:03:22;98305.59;;;5.51;90.90
32735;BME280;19112;51.076;3.706;2024-02-23T07:05:50;98053.78;;;3.67;90.39
32735;BME280;19112;51.076;3.706;2024-02-23T07:08:17;98225.47;;;4.54;90.68
32735;BME280;19112;51.076;3.706;2024-02-23T07:10:45;98538.28;;;7.08;91.03
32735;BME280;19112;51.076;3.706;2024-02-23T07:13:13;98198.84;;;4.70;90.63
32735;BME280;19112;51.076;3.706;2024-02-23T07:15:39;98688.63;;;7.80;90.94
32735;BME280;19112;51.076;3.706;2024-02-23T07:18:06;98828.03;;;8.81;90.25
32735;BME280;19112;51.076;3.706;2024-02-23T07:20:36;98069.94;;;4.10;89.92
32735;BME280;19112;51.076;3.706;2024-02-23T07:23:02;98018.19;;;3.60;89.74
32735;BME280;19112;51.076;3.706;2024-02-23T07:25:29;98678.94;;;7.67;89.84
32735;BME280;19112;51.076;3.706;2024-02-23T07:27:56;98658.72;;;7.49;90.01
32735;BME280;19112;51.076;3.706;2024-02-23T07:30:22;97890.66;;;2.68;89.17
32735;BME280;19112;51.076;3.706;2024-02-23T07:32:49;98519.22;;;6.30;89.56
32735;BME280;19112;51.076;3.706;2024-02-23T07:35:15;98315.41;;;5.05;89.51
32735;BME280;19112;51.076;3.706;2024-02-23T07:37:41;98188.03;;;4.40;89.66
32735;BME280;19112;51.076;3.706;2024-02-23T07:40:08;98468.97;;;6.42;90.58
32735;BME280;19112;51.076;3.706;2024-02-23T07:42:35;98177.16;;;4.67;90.10
32735;BME280;19112;51.076;3.706;2024-02-23T07:45:06;97549.31;;;1.12;90.00
32735;BME280;19112;51.076;3.706;2024-02-23T07:47:35;98739.53;;;7.39;91.28
32735;BME280;19112;51.076;3.706;2024-02-23T07:50:03;98054.59;;;4.27;90.94
32735;BME280;19112;51.076;3.706;2024-02-23T07:52:29;98033.03;;;3.71;91.08
32735;BME280;19112;51.076;3.706;2024-02-23T07:54:55;98129.84;;;4.26;91.09
32735;BME280;19112;51.076;3.706;2024-02-23T07:57:21;98090.34;;;3.86;91.01
32735;BME280;19112;51.076;3.706;2024-02-23T07:59:47;98230.03;;;4.70;90.57
32735;BME280;19112;51.076;3.706;2024-02-23T08:02:14;97921.19;;;3.46;91.08
32735;BME280;19112;51.076;3.706;2024-02-23T08:04:40;98373.00;;;6.01;91.09
32735;BME280;19112;51.076;3.706;2024-02-23T08:07:06;98038.59;;;3.95;91.42
32735;BME280;19112;51.076;3.706;2024-02-23T08:09:32;98003.19;;;4.00;91.62
32735;BME280;19112;51.076;3.706;2024-02-23T08:11:58;98323.81;;;5.52;90.68
32735;BME280;19112;51.076;3.706;2024-02-23T08:14:24;98430.22;;;5.95;90.68
32735;BME280;19112;51.076;3.706;2024-02-23T08:16:49;97693.25;;;2.23;89.88
32735;BME280;19112;51.076;3.706;2024-02-23T08:19:16;97903.00;;;3.43;89.99
32735;BME280;19112;51.076;3.706;2024-02-23T08:21:48;98101.91;;;4.08;90.33
32735;BME280;19112;51.076;3.706;2024-02-23T08:24:13;98192.13;;;4.88;91.37
32735;BME280;19112;51.076;3.706;2024-02-23T08:26:39;98509.09;;;7.52;92.34
32735;BME280;19112;51.076;3.706;2024-02-23T08:29:06;98165.06;;;5.45;91.97
32735;BME280;19112;51.076;3.706;2024-02-23T08:31:32;98757.56;;;9.15;92.45
32735;BME280;19112;51.076;3.706;2024-02-23T08:33:58;98192.97;;;5.64;91.07
32735;BME280;19112;51.076;3.706;2024-02-23T08:36:24;97984.06;;;4.69;90.32
32735;BME280;19112;51.076;3.706;2024-02-23T08:38:49;97949.19;;;4.46;90.12
32735;BME280;19112;51.076;3.706;2024-02-23T08:41:15;98086.63;;;5.02;90.52
32735;BME280;19112;51.076;3.706;2024-02-23T08:43:41;98447.94;;;7.15;90.43
32735;BME280;19112;51.076;3.706;2024-02-23T08:46:07;98713.84;;;8.89;90.06
32735;BME280;19112;51.076;3.706;2024-02-23T08:48:33;98379.09;;;6.94;89.43
32735;BME280;19112;51.076;3.706;2024-02-23T08:50:59;98320.44;;;6.43;89.59
32735;BME280;19112;51.076;3.706;2024-02-23T08:53:25;98489.06;;;7.51;88.26
32735;BME280;19112;51.076;3.706;2024-02-23T08:55:51;98322.19;;;6.40;88.38
32735;BME280;19112;51.076;3.706;2024-02-23T08:58:17;98321.22;;;6.30;88.83
32735;BME280;19112;51.076;3.706;2024-02-23T09:00:43;98292.56;;;6.28;88.51
32735;BME280;19112;51.076;3.706;2024-02-23T09:03:10;98224.56;;;5.17;88.44
32735;BME280;19112;51.076;3.706;2024-02-23T09:05:36;98562.22;;;7.58;89.27
32735;BME280;19112;51.076;3.706;2024-02-23T09:08:01;98459.16;;;7.04;89.56
32735;BME280;19112;51.076;3.706;2024-02-23T09:10:27;98274.25;;;6.22;88.58
32735;BME280;19112;51.076;3.706;2024-02-23T09:12:56;98496.97;;;7.60;88.76
32735;BME280;19112;51.076;3.706;2024-02-23T09:15:22;98133.91;;;4.70;88.17
32735;BME280;19112;51.076;3.706;2024-02-23T09:17:48;98935.09;;;9.76;89.58
32735;BME280;19112;51.076;3.706;2024-02-23T09:20:14;98482.88;;;7.38;90.00
32735;BME280;19112;51.076;3.706;2024-02-23T09:22:40;98351.66;;;6.36;90.34
32735;BME280;19112;51.076;3.706;2024-02-23T09:25:07;98368.78;;;7.09;89.29
32735;BME280;19112;51.076;3.706;2024-02-23T09:27:34;97862.84;;;3.82;88.31
32735;BME280;19112;51.076;3.706;2024-02-23T09:30:06;98110.63;;;5.68;88.37
32735;BME280;19112;51.076;3.706;2024-02-23T09:32:32;98421.84;;;7.18;87.74
32735;BME280;19112;51.076;3.706;2024-02-23T09:34:58;98707.53;;;8.54;88.59
32735;BME280;19112;51.076;3.706;2024-02-23T09:37:24;98518.91;;;7.85;88.90
32735;BME280;19112;51.076;3.706;2024-02-23T09:39:50;98263.16;;;6.45;88.33
32735;BME280;19112;51.076;3.706;2024-02-23T09:42:15;98265.97;;;6.75;87.56
32735;BME280;19112;51.076;3.706;2024-02-23T09:44:45;97452.72;;;1.60;86.87
32735;BME280;19112;51.076;3.706;2024-02-23T09:47:16;98729.72;;;9.28;86.00
32735;BME280;19112;51.076;3.706;2024-02-23T09:49:48;98189.50;;;5.64;86.60
32735;BME280;19112;51.076;3.706;2024-02-23T09:52:18;98948.38;;;10.17;87.58
32735;BME280;19112;51.076;3.706;2024-02-23T09:54:47;98115.03;;;5.79;87.25
32735;BME280;19112;51.076;3.706;2024-02-23T09:57:16;98443.75;;;7.38;87.53
32735;BME280;19112;51.076;3.706;2024-02-23T09:59:48;98488.28;;;7.63;86.67
32735;BME280;19112;51.076;3.706;2024-02-23T10:02:16;98511.22;;;8.11;86.70
32735;BME280;19112;51.076;3.706;2024-02-23T10:04:44;98380.94;;;7.14;85.44
32735;BME280;19112;51.076;3.706;2024-02-23T10:07:15;98138.22;;;5.50;85.55
32735;BME280;19112;51.076;3.706;2024-02-23T10:09:43;98821.59;;;9.89;86.41
32735;BME280;19112;51.076;3.706;2024-02-23T10:12:10;98003.47;;;5.07;84.99
32735;BME280;19112;51.076;3.706;2024-02-23T10:14:36;98766.56;;;9.95;85.93
32735;BME280;19112;51.076;3.706;2024-02-23T10:17:02;98219.00;;;6.68;85.72
32735;BME280;19112;51.076;3.706;2024-02-23T10:19:28;98145.50;;;5.90;85.47
32735;BME280;19112;51.076;3.706;2024-02-23T10:21:57;98336.81;;;7.49;83.78
32735;BME280;19112;51.076;3.706;2024-02-23T10:24:23;98331.47;;;7.26;82.90
32735;BME280;19112;51.076;3.706;2024-02-23T10:26:52;98342.47;;;6.80;83.93
32735;BME280;19112;51.076;3.706;2024-02-23T10:29:18;98155.41;;;6.37;83.29
32735;BME280;19112;51.076;3.706;2024-02-23T10:31:47;98207.91;;;7.10;81.80
32735;BME280;19112;51.076;3.706;2024-02-23T10:34:19;98173.75;;;6.53;81.26
32735;BME280;19112;51.076;3.706;2024-02-23T10:36:47;98426.78;;;8.26;81.90
32735;BME280;19112;51.076;3.706;2024-02-23T10:39:18;98796.34;;;10.49;82.19
32735;BME280;19112;51.076;3.706;2024-02-23T10:42:01;98745.63;;;10.09;82.14
32735;BME280;19112;51.076;3.706;2024-02-23T10:44:29;98170.44;;;6.90;80.72
32735;BME280;19112;51.076;3.706;2024-02-23T10:46:59;98413.69;;;8.30;80.26
32735;BME280;19112;51.076;3.706;2024-02-23T10:49:30;98062.16;;;5.85;80.70
32735;BME280;19112;51.076;3.706;2024-02-23T10:51:57;98601.34;;;8.96;80.89
32735;BME280;19112;51.076;3.706;2024-02-23T10:54:31;98306.31;;;7.39;80.19
32735;BME280;19112;51.076;3.706;2024-02-23T10:56:59;98780.59;;;10.14;80.35
32735;BME280;19112;51.076;3.706;2024-02-23T10:59:26;98757.78;;;9.70;79.60
32735;BME280;19112;51.076;3.706;2024-02-23T11:01:54;98772.66;;;9.77;80.00
32735;BME280;19112;51.076;3.706;2024-02-23T11:04:23;98100.44;;;5.95;80.03
32735;BME280;19112;51.076;3.706;2024-02-23T11:06:55;98101.47;;;6.20;79.48
32735;BME280;19112;51.076;3.706;2024-02-23T11:09:24;98847.81;;;9.92;78.44
32735;BME280;19112;51.076;3.706;2024-02-23T11:11:58;98386.50;;;7.72;79.23
32735;BME280;19112;51.076;3.706;2024-02-23T11:14:38;98686.97;;;9.33;80.12
32735;BME280;19112;51.076;3.706;2024-02-23T11:17:18;98501.66;;;8.16;80.59
32735;BME280;19112;51.076;3.706;2024-02-23T11:19:49;98575.00;;;8.47;80.18
32735;BME280;19112;51.076;3.706;2024-02-23T11:22:15;98603.81;;;8.60;79.53
32735;BME280;19112;51.076;3.706;2024-02-23T11:24:44;98842.72;;;10.39;79.08
32735;BME280;19112;51.076;3.706;2024-02-23T11:27:15;98348.13;;;7.48;78.79
32735;BME280;19112;51.076;3.706;2024-02-23T11:29:46;98534.03;;;8.43;77.55
32735;BME280;19112;51.076;3.706;2024-02-23T11:32:16;98142.28;;;6.23;78.07
32735;BME280;19112;51.076;3.706;2024-02-23T11:34:53;99019.53;;;11.68;79.01
32735;BME280;19112;51.076;3.706;2024-02-23T11:37:29;98675.69;;;9.71;77.04
32735;BME280;19112;51.076;3.706;2024-02-23T11:39:56;98673.94;;;9.59;77.88
32735;BME280;19112;51.076;3.706;2024-02-23T11:42:26;98224.41;;;7.06;77.64
32735;BME280;19112;51.076;3.706;2024-02-23T11:44:53;98805.13;;;10.62;77.22
32735;BME280;19112;51.076;3.706;2024-02-23T11:47:27;99057.19;;;12.15;77.31
32735;BME280;19112;51.076;3.706;2024-02-23T11:49:56;98653.88;;;9.72;76.52
32735;BME280;19112;51.076;3.706;2024-02-23T11:52:24;98737.81;;;10.50;77.99
32735;BME280;19112;51.076;3.706;2024-02-23T11:54:50;98769.25;;;10.68;78.26
32735;BME280;19112;51.076;3.706;2024-02-23T11:57:18;98433.72;;;8.18;78.06
32735;BME280;19112;51.076;3.706;2024-02-23T11:59:46;98751.75;;;10.20;78.86
32735;BME280;19112;51.076;3.706;2024-02-23T12:02:18;98527.16;;;8.75;78.55
32735;BME280;19112;51.076;3.706;2024-02-23T12:04:47;98745.66;;;10.45;78.30
32735;BME280;19112;51.076;3.706;2024-02-23T12:07:15;98793.75;;;10.87;75.82
32735;BME280;19112;51.076;3.706;2024-02-23T12:09:41;98208.94;;;7.52;76.67
32735;BME280;19112;51.076;3.706;2024-02-23T12:12:09;99077.16;;;12.74;76.33
32735;BME280;19112;51.076;3.706;2024-02-23T12:14:41;98634.63;;;10.37;75.52
32735;BME280;19112;51.076;3.706;2024-02-23T12:17:08;98399.88;;;9.17;74.74
32735;BME280;19112;51.076;3.706;2024-02-23T12:19:38;98365.00;;;8.78;75.22
32735;BME280;19112;51.076;3.706;2024-02-23T12:22:05;98143.66;;;7.53;74.32
32735;BME280;19112;51.076;3.706;2024-02-23T12:24:34;98765.56;;;11.38;74.42
32735;BME280;19112;51.076;3.706;2024-02-23T12:27:01;99031.41;;;12.93;74.54
32735;BME280;19112;51.076;3.706;2024-02-23T12:29:26;98288.31;;;8.58;74.50
32735;BME280;19112;51.076;3.706;2024-02-23T12:32:04;98784.78;;;11.52;75.17
32735;BME280;19112;51.076;3.706;2024-02-23T12:34:30;98699.94;;;11.29;75.16
32735;BME280;19112;51.076;3.706;2024-02-23T12:36:57;98562.03;;;10.56;74.25
32735;BME280;19112;51.076;3.706;2024-02-23T12:39:23;98713.66;;;11.89;74.96
32735;BME280;19112;51.076;3.706;2024-02-23T12:41:49;98352.59;;;9.72;73.89
32735;BME280;19112;51.076;3.706;2024-02-23T12:44:16;98239.03;;;9.79;72.89
32735;BME280;19112;51.076;3.706;2024-02-23T12:46:43;98778.56;;;12.95;72.04
32735;BME280;19112;51.076;3.706;2024-02-23T12:49:10;98481.50;;;10.72;71.55
32735;BME280;19112;51.076;3.706;2024-02-23T12:51:36;98150.28;;;9.30;71.47
32735;BME280;19112;51.076;3.706;2024-02-23T12:54:02;98251.22;;;9.88;69.76
32735;BME280;19112;51.076;3.706;2024-02-23T12:56:28;98856.53;;;13.16;71.05
32735;BME280;19112;51.076;3.706;2024-02-23T12:58:54;98242.72;;;9.46;70.99
32735;BME280;19112;51.076;3.706;2024-02-23T13:01:20;98854.13;;;12.90;71.66
32735;BME280;19112;51.076;3.706;2024-02-23T13:03:46;98308.06;;;9.69;70.96
32735;BME280;19112;51.076;3.706;2024-02-23T13:06:13;98191.53;;;8.75;71.03
32735;BME280;19112;51.076;3.706;2024-02-23T13:08:39;98407.44;;;10.24;70.67
32735;BME280;19112;51.076;3.706;2024-02-23T13:11:06;98426.66;;;10.15;70.96
32735;BME280;19112;51.076;3.706;2024-02-23T13:13:32;98982.59;;;13.61;69.71